createdAt,value
2022-08-04T00:00:15.317Z,24.68
2022-08-04T00:02:54.083Z,24.68
2022-08-04T00:05:31.432Z,24.73
2022-08-04T00:08:08.494Z,24.91
2022-08-04T00:10:41.261Z,25.01
2022-08-04T00:13:11.072Z,24.80
2022-08-04T00:15:39.974Z,24.96
2022-08-04T00:18:11.327Z,24.90
2022-08-04T00:20:42.630Z,25.03
2022-08-04T00:23:11.093Z,25.06
2022-08-04T00:25:42.566Z,25.14
2022-08-04T00:28:10.803Z,25.10
2022-08-04T00:30:39.261Z,25.02
2022-08-04T00:33:08.642Z,25.08
2022-08-04T00:35:37.873Z,25.14
2022-08-04T00:38:07.266Z,25.15
2022-08-04T00:40:49.718Z,25.16
2022-08-04T00:43:24.648Z,25.03
2022-08-04T00:46:26.408Z,24.89
2022-08-04T00:49:11.854Z,24.78
2022-08-04T00:52:32.274Z,24.91
2022-08-04T00:54:50.152Z,24.65
2022-08-04T00:57:34.611Z,24.59
2022-08-04T01:00:09.643Z,24.58
2022-08-04T01:02:41.104Z,24.38
2022-08-04T01:05:20.199Z,24.39
2022-08-04T01:08:02.423Z,24.50
2022-08-04T01:10:42.587Z,24.21
2022-08-04T01:13:33.697Z,24.21
2022-08-04T01:16:05.615Z,24.16
2022-08-04T01:18:44.864Z,23.88
2022-08-04T01:21:44.714Z,23.84
2022-08-04T01:24:42.917Z,23.54
2022-08-04T01:27:20.680Z,23.41
2022-08-04T01:29:56.646Z,23.49
2022-08-04T01:32:29.801Z,23.55
2022-08-04T01:35:04.213Z,23.52
2022-08-04T01:37:48.492Z,23.48
2022-08-04T01:40:17.793Z,23.36
2022-08-04T01:42:50.767Z,23.42
2022-08-04T01:45:20.700Z,23.45
2022-08-04T01:47:52.034Z,23.31
2022-08-04T01:50:21.699Z,23.35
2022-08-04T01:52:51.314Z,23.39
2022-08-04T01:55:20.207Z,23.14
2022-08-04T01:57:50.630Z,23.12
2022-08-04T02:00:22.888Z,23.14
2022-08-04T02:02:52.714Z,23.11
2022-08-04T02:05:22.971Z,23.16
2022-08-04T02:08:12.085Z,22.95
2022-08-04T02:10:56.984Z,22.88
2022-08-04T02:13:33.157Z,22.81
2022-08-04T02:16:06.457Z,22.75
2022-08-04T02:18:46.457Z,22.80
2022-08-04T02:21:17.241Z,22.72
2022-08-04T02:23:51.606Z,22.66
2022-08-04T02:26:23.031Z,22.65
2022-08-04T02:29:02.526Z,22.47
2022-08-04T02:31:35.858Z,22.26
2022-08-04T02:34:09.824Z,22.27
2022-08-04T02:36:40.018Z,22.35
2022-08-04T02:39:10.495Z,22.20
2022-08-04T02:41:40.260Z,22.10
2022-08-04T02:44:10.754Z,22.11
2022-08-04T02:46:42.964Z,22.21
2022-08-04T02:49:11.966Z,22.04
2022-08-04T02:51:46.193Z,22.12
2022-08-04T02:54:31.580Z,22.10
2022-08-04T02:57:04.557Z,22.17
2022-08-04T02:59:49.971Z,22.21
2022-08-04T03:02:30.159Z,22.27
2022-08-04T03:05:02.359Z,22.37
2022-08-04T03:07:56.001Z,22.32
2022-08-04T03:11:01.405Z,22.28
2022-08-04T03:13:45.466Z,22.21
2022-08-04T03:16:36.693Z,22.29
2022-08-04T03:23:00.070Z,22.25
2022-08-04T03:26:06.724Z,22.28
2022-08-04T03:29:26.056Z,22.26
2022-08-04T03:32:50.732Z,22.21
2022-08-04T03:35:38.351Z,21.96
2022-08-04T03:38:28.129Z,21.97
2022-08-04T03:41:59.821Z,21.88
2022-08-04T03:44:36.805Z,22.13
2022-08-04T03:47:35.258Z,22.03
2022-08-04T03:50:29.583Z,22.06
2022-08-04T03:53:28.970Z,21.89
2022-08-04T03:56:33.304Z,22.06
2022-08-04T03:59:35.234Z,21.95
2022-08-04T04:02:45.785Z,21.81
2022-08-04T04:06:00.015Z,21.96
2022-08-04T04:09:04.385Z,22.00
2022-08-04T04:12:01.407Z,22.09
2022-08-04T04:15:03.573Z,22.08
2022-08-04T04:18:04.857Z,21.99
2022-08-04T04:21:00.758Z,21.94
2022-08-04T04:24:18.302Z,22.08
2022-08-04T04:26:58.244Z,21.94
2022-08-04T04:29:55.903Z,22.02
2022-08-04T04:32:29.691Z,22.09
2022-08-04T04:35:16.883Z,22.00
2022-08-04T04:38:07.111Z,21.96
2022-08-04T04:40:54.747Z,22.03
2022-08-04T04:43:51.218Z,22.03
2022-08-04T04:46:31.581Z,22.00
2022-08-04T04:49:06.770Z,22.10
2022-08-04T04:51:44.228Z,22.17
2022-08-04T04:54:21.317Z,22.20
2022-08-04T04:57:01.635Z,22.22
2022-08-04T04:59:35.049Z,22.28
2022-08-04T05:02:27.902Z,22.20
2022-08-04T05:05:16.851Z,22.24
2022-08-04T05:08:04.333Z,22.04
2022-08-04T05:11:06.449Z,22.10
2022-08-04T05:14:36.200Z,22.23
2022-08-04T05:16:34.514Z,22.41
2022-08-04T05:19:16.712Z,22.46
2022-08-04T05:21:50.161Z,22.45
2022-08-04T05:24:22.088Z,22.57
2022-08-04T05:26:56.967Z,22.64
2022-08-04T05:29:31.855Z,22.59
2022-08-04T05:32:04.322Z,22.71
2022-08-04T05:34:37.343Z,22.78
2022-08-04T05:37:11.344Z,22.83
2022-08-04T05:39:46.318Z,22.90
2022-08-04T05:42:16.689Z,23.06
2022-08-04T05:44:51.091Z,23.13
2022-08-04T05:47:22.485Z,23.20
2022-08-04T05:50:01.257Z,23.27
2022-08-04T05:52:31.825Z,23.29
2022-08-04T05:55:01.694Z,23.39
2022-08-04T05:57:31.073Z,23.55
2022-08-04T06:00:14.874Z,23.55
2022-08-04T06:02:52.931Z,23.67
2022-08-04T06:05:21.557Z,23.88
2022-08-04T06:08:12.366Z,24.02
2022-08-04T06:10:41.373Z,24.11
2022-08-04T06:13:45.494Z,24.28
2022-08-04T06:16:06.936Z,24.24
2022-08-04T06:19:59.982Z,24.30
2022-08-04T06:21:28.584Z,24.44
2022-08-04T06:24:04.374Z,24.62
2022-08-04T06:26:36.193Z,24.71
2022-08-04T06:29:05.747Z,24.95
2022-08-04T06:32:30.085Z,25.03
2022-08-04T06:34:37.270Z,24.94
2022-08-04T06:37:07.203Z,24.94
2022-08-04T06:39:37.662Z,25.16
2022-08-04T06:42:22.144Z,25.25
2022-08-04T06:44:53.102Z,25.36
2022-08-04T06:47:24.112Z,25.59
2022-08-04T06:51:24.916Z,25.76
2022-08-04T06:52:43.397Z,25.83
2022-08-04T06:55:11.670Z,25.96
2022-08-04T06:57:42.946Z,26.10
2022-08-04T07:00:14.603Z,26.23
2022-08-04T07:02:47.485Z,26.33
2022-08-04T07:05:16.561Z,26.38
2022-08-04T07:07:57.925Z,26.57
2022-08-04T07:10:28.412Z,26.72
2022-08-04T07:12:58.064Z,26.91
2022-08-04T07:15:27.092Z,27.11
2022-08-04T07:18:00.435Z,27.32
2022-08-04T07:20:35.976Z,27.21
2022-08-04T07:23:05.697Z,27.35
2022-08-04T07:26:00.991Z,27.77
2022-08-04T07:28:25.022Z,27.86
2022-08-04T07:30:55.273Z,28.01
2022-08-04T07:33:26.059Z,28.27
2022-08-04T07:36:09.080Z,28.32
2022-08-04T07:38:48.326Z,28.37
2022-08-04T07:41:40.719Z,28.44
2022-08-04T07:44:10.045Z,28.40
2022-08-04T07:46:38.806Z,28.62
2022-08-04T07:49:09.543Z,28.63
2022-08-04T07:51:38.997Z,28.68
2022-08-04T07:54:09.499Z,28.88
2022-08-04T07:56:39.843Z,28.87
2022-08-04T07:59:10.574Z,28.97
2022-08-04T08:01:39.395Z,28.88
2022-08-04T08:04:11.668Z,28.69
2022-08-04T08:06:43.130Z,28.76
2022-08-04T08:09:15.293Z,28.84
2022-08-04T08:12:38.225Z,28.77
2022-08-04T08:14:35.203Z,28.98
2022-08-04T08:17:04.556Z,28.93
2022-08-04T08:19:35.863Z,29.00
2022-08-04T08:22:05.254Z,29.14
2022-08-04T08:24:37.796Z,29.35
2022-08-04T08:27:07.063Z,29.47
2022-08-04T08:29:36.991Z,29.64
2022-08-04T08:32:08.886Z,29.17
2022-08-04T08:34:39.889Z,29.38
2022-08-04T08:37:16.577Z,29.37
2022-08-04T08:39:54.089Z,29.32
2022-08-04T08:43:59.893Z,29.61
2022-08-04T08:46:48.123Z,30.24
2022-08-04T08:50:00.515Z,30.52
2022-08-04T08:53:02.013Z,30.38
2022-08-04T08:55:43.937Z,30.52
2022-08-04T08:58:33.803Z,30.63
2022-08-04T09:01:11.847Z,30.78
2022-08-04T09:03:55.649Z,31.13
2022-08-04T09:06:43.793Z,31.33
2022-08-04T09:09:43.464Z,31.43
2022-08-04T09:12:26.753Z,31.62
2022-08-04T09:15:02.016Z,31.76
2022-08-04T09:17:34.714Z,32.09
2022-08-04T09:20:07.582Z,32.27
2022-08-04T09:22:44.239Z,32.23
2022-08-04T09:25:21.378Z,31.46
2022-08-04T09:27:55.006Z,32.01
2022-08-04T09:30:29.224Z,32.32
2022-08-04T09:33:12.236Z,32.53
2022-08-04T09:35:56.564Z,31.95
2022-08-04T09:38:37.934Z,32.14
2022-08-04T09:41:20.629Z,31.90
2022-08-04T09:44:52.723Z,32.40
2022-08-04T09:47:15.579Z,32.62
2022-08-04T09:49:54.522Z,32.53
2022-08-04T09:52:34.071Z,32.65
2022-08-04T09:55:10.856Z,32.39
2022-08-04T09:57:53.328Z,32.38
2022-08-04T10:00:40.900Z,32.56
2022-08-04T10:03:17.511Z,32.43
2022-08-04T10:06:05.916Z,32.36
2022-08-04T10:08:55.291Z,32.54
2022-08-04T10:11:54.762Z,33.09
2022-08-04T10:14:40.249Z,33.51
2022-08-04T10:17:27.984Z,34.03
2022-08-04T10:20:04.842Z,34.23
2022-08-04T10:22:55.588Z,34.40
2022-08-04T10:26:05.595Z,34.31
2022-08-04T10:28:31.922Z,34.74
2022-08-04T10:31:08.482Z,34.58
2022-08-04T10:33:46.448Z,34.89
2022-08-04T10:36:20.659Z,35.03
2022-08-04T10:38:57.709Z,35.02
2022-08-04T10:41:32.735Z,34.87
2022-08-04T10:44:15.069Z,34.87
2022-08-04T10:46:49.975Z,34.49
2022-08-04T10:49:24.567Z,34.85
2022-08-04T10:51:58.343Z,35.35
2022-08-04T10:54:34.474Z,35.50
2022-08-04T10:57:08.825Z,34.15
2022-08-04T10:59:44.743Z,34.90
2022-08-04T11:02:28.489Z,35.23
2022-08-04T11:05:08.686Z,35.69
2022-08-04T11:07:38.849Z,35.83
2022-08-04T11:10:09.257Z,35.19
2022-08-04T11:12:40.902Z,35.55
2022-08-04T11:15:15.029Z,35.74
2022-08-04T11:17:51.261Z,35.82
2022-08-04T11:20:36.460Z,35.95
2022-08-04T11:23:09.447Z,35.81
2022-08-04T11:25:51.952Z,36.01
2022-08-04T11:28:26.777Z,35.72
2022-08-04T11:31:00.517Z,35.41
2022-08-04T11:33:42.483Z,35.74
2022-08-04T11:36:22.238Z,36.49
2022-08-04T11:39:05.058Z,36.63
2022-08-04T11:41:42.397Z,36.34
2022-08-04T11:44:18.415Z,34.99
2022-08-04T11:46:52.724Z,35.22
2022-08-04T11:49:31.060Z,35.46
2022-08-04T11:52:03.909Z,34.81
2022-08-04T11:54:35.557Z,35.56
2022-08-04T11:57:05.140Z,35.52
2022-08-04T11:59:37.126Z,35.83
2022-08-04T12:02:26.875Z,36.48
2022-08-04T12:04:59.729Z,36.89
2022-08-04T12:07:42.745Z,37.27
2022-08-04T12:10:41.730Z,37.03
2022-08-04T12:13:22.080Z,36.54
2022-08-04T12:15:59.575Z,36.04
2022-08-04T12:18:35.716Z,37.07
2022-08-04T12:21:10.769Z,37.86
2022-08-04T12:23:44.375Z,38.28
2022-08-04T12:26:22.342Z,37.50
2022-08-04T12:29:11.590Z,38.66
2022-08-04T12:31:46.717Z,39.16
2022-08-04T12:34:19.411Z,38.38
2022-08-04T12:36:58.116Z,38.21
2022-08-04T12:39:29.206Z,38.99
2022-08-04T12:42:05.140Z,38.31
2022-08-04T12:44:38.304Z,38.85
2022-08-04T12:47:26.425Z,38.45
2022-08-04T12:50:02.064Z,38.41
2022-08-04T12:53:01.553Z,38.77
2022-08-04T12:55:27.132Z,38.25
2022-08-04T12:57:57.137Z,37.60
2022-08-04T13:00:31.222Z,37.55
2022-08-04T13:03:10.040Z,38.47
2022-08-04T13:05:42.419Z,37.25
2022-08-04T13:08:15.646Z,37.81
2022-08-04T13:10:47.528Z,37.38
2022-08-04T13:13:18.966Z,37.72
2022-08-04T13:15:59.120Z,38.96
2022-08-04T13:18:32.500Z,39.08
2022-08-04T13:21:20.211Z,38.84
2022-08-04T13:24:09.819Z,38.58
2022-08-04T13:26:54.697Z,38.30
2022-08-04T13:30:00.674Z,38.73
2022-08-04T13:32:25.915Z,38.43
2022-08-04T13:34:57.188Z,39.25
2022-08-04T13:37:32.234Z,39.45
2022-08-04T13:40:06.466Z,38.34
2022-08-04T13:42:37.012Z,39.07
2022-08-04T13:45:09.405Z,39.98
2022-08-04T13:47:41.842Z,38.66
2022-08-04T13:50:14.878Z,38.72
2022-08-04T13:52:45.446Z,39.36
2022-08-04T13:55:23.720Z,39.16
2022-08-04T13:57:57.328Z,39.47
2022-08-04T14:00:29.632Z,40.38
2022-08-04T14:03:03.238Z,40.70
2022-08-04T14:05:58.765Z,41.05
2022-08-04T14:08:27.911Z,40.96
2022-08-04T14:10:59.955Z,40.73
2022-08-04T14:13:41.370Z,41.04
2022-08-04T14:16:21.323Z,40.65
2022-08-04T14:18:58.637Z,40.90
2022-08-04T14:21:26.801Z,40.08
2022-08-04T14:23:56.941Z,39.34
2022-08-04T14:26:32.323Z,39.71
2022-08-04T14:29:26.846Z,39.75
2022-08-04T14:32:05.560Z,38.80
2022-08-04T14:34:41.288Z,38.54
2022-08-04T14:37:17.252Z,38.32
2022-08-04T14:40:08.291Z,38.98
2022-08-04T14:42:55.800Z,40.18
2022-08-04T14:45:37.674Z,41.15
2022-08-04T14:48:09.464Z,42.02
2022-08-04T14:50:40.787Z,41.72
2022-08-04T14:53:11.656Z,42.01
2022-08-04T14:55:41.383Z,41.30
2022-08-04T14:58:36.578Z,41.41
2022-08-04T15:01:10.842Z,41.28
2022-08-04T15:03:50.009Z,41.01
2022-08-04T15:06:23.404Z,41.41
2022-08-04T15:08:52.963Z,40.78
2022-08-04T15:11:22.974Z,40.07
2022-08-04T15:13:54.222Z,40.13
2022-08-04T15:16:23.258Z,40.13
2022-08-04T15:18:52.797Z,40.26
2022-08-04T15:21:26.130Z,40.20
2022-08-04T15:23:54.752Z,40.37
2022-08-04T15:26:29.652Z,40.06
2022-08-04T15:29:15.944Z,40.19
2022-08-04T15:32:07.281Z,38.44
2022-08-04T15:34:47.823Z,37.52
2022-08-04T15:37:21.541Z,38.03
2022-08-04T15:39:56.055Z,38.38
2022-08-04T15:42:34.598Z,38.91
2022-08-04T15:45:20.366Z,39.15
2022-08-04T15:48:26.403Z,39.36
2022-08-04T15:51:14.790Z,39.50
2022-08-04T15:54:33.312Z,39.28
2022-08-04T15:57:03.444Z,39.24
2022-08-04T16:00:01.060Z,38.74
2022-08-04T16:02:45.095Z,37.86
2022-08-04T16:05:39.380Z,38.79
2022-08-04T16:08:17.848Z,39.11
2022-08-04T16:10:48.499Z,39.04
2022-08-04T16:13:19.912Z,39.21
2022-08-04T16:16:03.679Z,39.08
2022-08-04T16:18:44.155Z,39.14
2022-08-04T16:21:25.219Z,38.98
2022-08-04T16:24:21.742Z,38.94
2022-08-04T16:26:56.641Z,38.91
2022-08-04T16:29:39.650Z,38.90
2022-08-04T16:32:22.309Z,38.76
2022-08-04T16:35:00.105Z,39.06
2022-08-04T16:37:34.060Z,38.81
2022-08-04T16:40:37.760Z,38.23
2022-08-04T16:43:13.391Z,38.16
2022-08-04T16:45:50.250Z,38.62
2022-08-04T16:48:19.702Z,39.02
2022-08-04T16:51:10.790Z,38.62
2022-08-04T16:54:02.715Z,39.15
2022-08-04T16:56:34.574Z,39.34
2022-08-04T16:59:10.471Z,39.42
2022-08-04T17:01:40.262Z,39.77
2022-08-04T17:04:08.756Z,39.71
2022-08-04T17:06:42.202Z,39.78
2022-08-04T17:09:13.436Z,40.02
2022-08-04T17:11:42.705Z,39.86
2022-08-04T17:14:11.260Z,39.49
2022-08-04T17:16:42.433Z,39.41
2022-08-04T17:19:23.824Z,39.58
2022-08-04T17:22:03.909Z,38.88
2022-08-04T17:24:33.048Z,38.73
2022-08-04T17:27:01.454Z,39.17
2022-08-04T17:29:43.514Z,39.49
2022-08-04T17:32:19.909Z,39.45
2022-08-04T17:34:49.747Z,39.14
2022-08-04T17:37:41.163Z,38.27
2022-08-04T17:40:10.940Z,37.83
2022-08-04T17:42:41.859Z,37.38
2022-08-04T17:48:02.961Z,36.52
2022-08-04T17:50:35.869Z,36.33
2022-08-04T17:53:12.187Z,36.16
2022-08-04T17:55:47.025Z,36.31
2022-08-04T17:58:22.190Z,36.28
2022-08-04T18:03:51.593Z,35.57
2022-08-04T18:06:22.426Z,35.62
2022-08-04T18:08:58.180Z,35.60
2022-08-04T18:11:34.809Z,35.52
2022-08-04T18:14:10.488Z,35.44
2022-08-04T18:16:45.035Z,35.38
2022-08-04T18:19:15.653Z,35.41
2022-08-04T18:21:59.565Z,35.43
2022-08-04T18:24:35.915Z,35.25
2022-08-04T18:27:22.512Z,35.26
2022-08-04T18:30:28.673Z,35.35
2022-08-04T18:32:56.397Z,35.23
2022-08-04T18:36:31.580Z,35.08
2022-08-04T18:38:22.496Z,34.93
2022-08-04T18:40:55.269Z,35.01
2022-08-04T18:43:28.687Z,34.87
2022-08-04T18:45:59.822Z,34.65
2022-08-04T18:48:36.881Z,34.46
2022-08-04T18:51:23.125Z,34.36
2022-08-04T18:53:55.194Z,34.17
2022-08-04T18:56:32.436Z,34.06
2022-08-04T18:59:03.095Z,33.89
2022-08-04T19:02:12.474Z,33.69
2022-08-04T19:04:34.020Z,33.81
2022-08-04T19:09:59.779Z,33.47
2022-08-04T19:12:29.756Z,33.57
2022-08-04T19:15:10.248Z,33.52
2022-08-04T19:17:53.904Z,33.36
2022-08-04T19:20:27.099Z,33.26
2022-08-04T19:24:11.437Z,33.11
2022-08-04T19:26:02.868Z,33.00
2022-08-04T19:28:36.598Z,32.64
2022-08-04T19:31:09.159Z,32.83
2022-08-04T19:36:29.617Z,31.94
2022-08-04T19:39:01.615Z,31.29
2022-08-04T19:41:33.979Z,31.03
2022-08-04T19:44:25.172Z,30.96
2022-08-04T19:47:00.498Z,30.88
2022-08-04T19:50:04.623Z,30.95
2022-08-04T19:55:10.732Z,30.72
2022-08-04T19:57:46.452Z,30.59
2022-08-04T20:00:33.207Z,30.68
2022-08-04T20:03:02.741Z,30.57
2022-08-04T20:05:52.739Z,30.66
2022-08-04T20:08:19.655Z,30.58
2022-08-04T20:10:51.982Z,30.44
2022-08-04T20:13:20.944Z,30.46
2022-08-04T20:15:57.799Z,30.39
2022-08-04T20:18:35.895Z,30.34
2022-08-04T20:21:18.814Z,30.30
2022-08-04T20:23:50.020Z,30.40
2022-08-04T20:26:19.375Z,30.30
2022-08-04T20:28:51.814Z,30.10
2022-08-04T20:31:21.828Z,30.03
2022-08-04T20:33:54.784Z,29.96
2022-08-04T20:36:23.563Z,29.81
2022-08-04T20:38:54.705Z,29.81
2022-08-04T20:41:23.578Z,29.95
2022-08-04T20:43:51.749Z,29.75
2022-08-04T20:46:29.062Z,29.66
2022-08-04T20:48:58.223Z,29.62
2022-08-04T20:51:33.429Z,29.77
2022-08-04T20:54:16.152Z,29.82
2022-08-04T20:56:51.232Z,30.04
2022-08-04T20:59:19.940Z,30.08
2022-08-04T21:04:45.588Z,30.05
2022-08-04T21:07:17.089Z,30.04
2022-08-04T21:09:51.226Z,29.89
2022-08-04T21:12:26.789Z,29.75
2022-08-04T21:15:13.350Z,29.76
2022-08-04T21:17:56.632Z,29.81
2022-08-04T21:20:28.584Z,29.82
2022-08-04T21:22:59.874Z,29.95
2022-08-04T21:25:31.064Z,29.99
2022-08-04T21:28:04.456Z,29.64
2022-08-04T21:30:52.434Z,29.46
2022-08-04T21:33:22.979Z,29.16
2022-08-04T21:35:54.101Z,29.41
2022-08-04T21:38:41.720Z,29.24
2022-08-04T21:41:11.331Z,29.40
2022-08-04T21:43:48.325Z,29.35
2022-08-04T21:46:16.647Z,29.42
2022-08-04T21:48:49.205Z,29.52
2022-08-04T21:51:57.334Z,29.57
2022-08-04T21:54:09.440Z,29.62
2022-08-04T21:56:39.256Z,29.59
2022-08-04T21:59:14.428Z,29.61
2022-08-04T22:01:51.905Z,29.52
2022-08-04T22:04:22.057Z,29.43
2022-08-04T22:06:52.476Z,29.37
2022-08-04T22:09:22.324Z,29.38
2022-08-04T22:11:52.210Z,29.25
2022-08-04T22:17:23.867Z,28.88
2022-08-04T22:19:56.628Z,28.80
2022-08-04T22:22:29.026Z,28.88
2022-08-04T22:25:01.846Z,28.82
2022-08-04T22:27:55.382Z,29.00
2022-08-04T22:30:24.243Z,28.94
2022-08-04T22:32:57.433Z,28.78
2022-08-04T22:35:43.422Z,28.61
2022-08-04T22:38:25.563Z,28.10
2022-08-04T22:41:04.411Z,27.82
2022-08-04T22:43:34.714Z,27.82
2022-08-04T22:46:06.522Z,27.89
2022-08-04T22:48:36.403Z,27.87
2022-08-04T22:51:08.634Z,27.71
2022-08-04T22:53:37.785Z,27.62
2022-08-04T22:56:11.189Z,27.42
2022-08-04T22:58:45.405Z,27.25
2022-08-04T23:01:20.248Z,27.28
2022-08-04T23:03:55.844Z,27.17
2022-08-04T23:06:28.308Z,27.10
2022-08-04T23:08:59.320Z,27.04
2022-08-04T23:11:34.490Z,27.06
2022-08-04T23:14:04.486Z,26.96
2022-08-04T23:16:32.881Z,26.92
2022-08-04T23:19:09.717Z,26.82
2022-08-04T23:21:40.844Z,26.74
2022-08-04T23:24:15.757Z,26.62
2022-08-04T23:26:43.929Z,26.60
2022-08-04T23:29:12.201Z,26.49
2022-08-04T23:31:59.770Z,26.52
2022-08-04T23:34:29.143Z,26.40
2022-08-04T23:36:59.456Z,26.36
2022-08-04T23:40:03.413Z,26.34
2022-08-04T23:42:21.273Z,26.15
2022-08-04T23:44:50.057Z,26.09
2022-08-04T23:48:18.313Z,26.06
2022-08-04T23:50:07.430Z,26.09
2022-08-04T23:52:37.146Z,25.96
2022-08-04T23:55:07.410Z,25.98
2022-08-04T23:58:05.806Z,26.07
